createdAt,value
2022-10-18T00:00:00.181Z,0.75
2022-10-18T00:02:27.384Z,0.80
2022-10-18T00:04:54.622Z,0.70
2022-10-18T00:07:21.771Z,0.80
2022-10-18T00:09:48.954Z,0.73
2022-10-18T00:12:16.102Z,0.93
2022-10-18T00:14:43.369Z,1.13
2022-10-18T00:17:10.564Z,0.70
2022-10-18T00:19:37.726Z,0.50
2022-10-18T00:22:04.913Z,0.75
2022-10-18T00:24:32.188Z,1.00
2022-10-18T00:26:59.353Z,0.65
2022-10-18T00:29:26.520Z,0.60
2022-10-18T00:31:53.655Z,0.57
2022-10-18T00:34:20.834Z,0.70
2022-10-18T00:36:48.103Z,0.98
2022-10-18T00:39:16.921Z,0.90
2022-10-18T00:41:44.407Z,0.98
2022-10-18T00:44:11.541Z,0.90
2022-10-18T00:46:49.657Z,0.88
2022-10-18T00:49:19.737Z,0.77
2022-10-18T00:51:46.849Z,0.63
2022-10-18T00:54:15.396Z,0.68
2022-10-18T00:56:44.865Z,0.47
2022-10-18T00:59:13.034Z,0.70
2022-10-18T01:01:40.245Z,0.73
2022-10-18T01:04:07.478Z,0.55
2022-10-18T01:06:39.483Z,1.63
2022-10-18T01:09:09.844Z,0.77
2022-10-18T01:11:51.694Z,0.93
2022-10-18T01:14:35.593Z,0.40
2022-10-18T01:17:08.879Z,1.35
2022-10-18T01:19:54.908Z,0.90
2022-10-18T01:22:28.116Z,0.57
2022-10-18T01:25:14.380Z,0.90
2022-10-18T01:27:56.739Z,1.20
2022-10-18T01:30:40.833Z,1.00
2022-10-18T01:33:11.040Z,1.38
2022-10-18T01:35:40.479Z,0.60
2022-10-18T01:38:11.533Z,0.45
2022-10-18T01:40:40.173Z,1.23
2022-10-18T01:43:09.034Z,0.60
2022-10-18T01:45:36.215Z,1.05
2022-10-18T01:48:03.679Z,0.93
2022-10-18T01:50:31.917Z,0.80
2022-10-18T01:52:59.591Z,0.45
2022-10-18T01:55:38.034Z,0.80
2022-10-18T01:58:05.231Z,1.30
2022-10-18T02:00:37.029Z,0.82
2022-10-18T02:03:07.023Z,0.80
2022-10-18T02:05:46.224Z,0.57
2022-10-18T02:08:23.573Z,0.85
2022-10-18T02:10:55.037Z,0.30
2022-10-18T02:13:23.308Z,0.80
2022-10-18T02:15:52.097Z,0.90
2022-10-18T02:18:23.856Z,0.60
2022-10-18T02:20:52.432Z,1.00
2022-10-18T02:23:22.031Z,0.60
2022-10-18T02:25:49.377Z,0.65
2022-10-18T02:28:16.587Z,0.77
2022-10-18T02:30:53.954Z,0.70
2022-10-18T02:33:30.933Z,0.73
2022-10-18T02:36:02.915Z,1.02
2022-10-18T02:38:31.219Z,0.82
2022-10-18T02:40:59.029Z,1.00
2022-10-18T02:43:26.284Z,0.93
2022-10-18T02:45:53.700Z,0.93
2022-10-18T02:48:21.007Z,0.70
2022-10-18T02:50:48.246Z,1.38
2022-10-18T02:53:15.437Z,1.23
2022-10-18T02:55:42.619Z,0.77
2022-10-18T02:58:09.822Z,0.93
2022-10-18T03:00:36.965Z,0.82
2022-10-18T03:03:04.173Z,1.15
2022-10-18T03:05:31.379Z,0.68
2022-10-18T03:07:58.626Z,0.80
2022-10-18T03:10:25.862Z,0.82
2022-10-18T03:12:53.084Z,0.60
2022-10-18T03:15:20.289Z,0.80
2022-10-18T03:17:47.448Z,0.80
2022-10-18T03:20:14.844Z,0.93
2022-10-18T03:22:42.057Z,0.73
2022-10-18T03:25:09.375Z,0.90
2022-10-18T03:27:36.554Z,0.85
2022-10-18T03:30:05.655Z,0.90
2022-10-18T03:32:33.121Z,0.85
2022-10-18T03:35:00.606Z,1.30
2022-10-18T03:37:27.803Z,1.02
2022-10-18T03:39:55.032Z,0.80
2022-10-18T03:42:22.328Z,1.00
2022-10-18T03:44:49.588Z,0.73
2022-10-18T03:47:16.874Z,0.75
2022-10-18T03:49:44.088Z,0.70
2022-10-18T03:52:11.250Z,0.73
2022-10-18T03:54:38.442Z,0.90
2022-10-18T03:57:05.612Z,0.60
2022-10-18T03:59:32.749Z,1.13
2022-10-18T04:01:59.994Z,1.58
2022-10-18T04:04:27.178Z,1.45
2022-10-18T04:06:54.354Z,0.88
2022-10-18T04:09:21.538Z,1.42
2022-10-18T04:11:50.812Z,1.20
2022-10-18T04:14:18.360Z,1.30
2022-10-18T04:16:45.519Z,0.90
2022-10-18T04:19:12.672Z,0.93
2022-10-18T04:21:39.988Z,0.82
2022-10-18T04:24:07.188Z,0.88
2022-10-18T04:26:34.377Z,0.82
2022-10-18T04:29:01.730Z,0.60
2022-10-18T04:31:28.970Z,0.60
2022-10-18T04:33:56.188Z,1.27
2022-10-18T04:36:23.375Z,0.80
2022-10-18T04:38:50.520Z,0.63
2022-10-18T04:41:17.691Z,0.75
2022-10-18T04:46:13.051Z,0.60
2022-10-18T04:48:40.259Z,0.65
2022-10-18T04:51:07.437Z,0.60
2022-10-18T04:53:34.654Z,0.70
2022-10-18T04:56:01.943Z,0.60
2022-10-18T04:58:29.108Z,0.60
2022-10-18T05:00:56.256Z,0.77
2022-10-18T05:03:23.552Z,0.70
2022-10-18T05:06:01.462Z,0.70
2022-10-18T05:08:30.511Z,0.80
2022-10-18T05:10:57.796Z,0.52
2022-10-18T05:13:25.116Z,0.98
2022-10-18T05:15:52.620Z,1.02
2022-10-18T05:18:20.047Z,0.60
2022-10-18T05:20:47.408Z,1.00
2022-10-18T05:23:14.615Z,1.40
2022-10-18T05:25:42.745Z,1.17
2022-10-18T05:28:34.632Z,0.77
2022-10-18T05:31:01.619Z,0.73
2022-10-18T05:33:29.021Z,1.02
2022-10-18T05:35:56.234Z,1.20
2022-10-18T05:38:23.834Z,0.82
2022-10-18T05:40:51.129Z,1.13
2022-10-18T05:43:18.661Z,1.10
2022-10-18T05:45:51.816Z,1.10
2022-10-18T05:48:19.084Z,1.08
2022-10-18T05:50:46.671Z,1.00
2022-10-18T05:53:35.191Z,0.85
2022-10-18T05:56:02.019Z,1.65
2022-10-18T05:58:29.384Z,0.98
2022-10-18T06:00:59.184Z,1.00
2022-10-18T06:03:27.551Z,0.70
2022-10-18T06:05:59.347Z,1.00
2022-10-18T06:08:26.673Z,1.03
2022-10-18T06:10:53.897Z,1.35
2022-10-18T06:13:21.049Z,0.85
2022-10-18T06:15:48.247Z,0.85
2022-10-18T06:18:15.475Z,0.90
2022-10-18T06:20:42.696Z,0.88
2022-10-18T06:23:09.880Z,0.90
2022-10-18T06:25:37.073Z,0.90
2022-10-18T06:28:10.148Z,0.73
2022-10-18T06:30:39.309Z,1.10
2022-10-18T06:33:06.489Z,1.13
2022-10-18T06:35:34.757Z,1.02
2022-10-18T06:38:01.956Z,1.40
2022-10-18T06:40:30.921Z,1.20
2022-10-18T06:43:00.422Z,13.50
2022-10-18T06:45:33.530Z,1.48
2022-10-18T06:48:00.732Z,1.05
2022-10-18T06:50:27.947Z,1.25
2022-10-18T06:52:55.149Z,0.82
2022-10-18T06:55:22.308Z,1.45
2022-10-18T06:57:49.519Z,0.95
2022-10-18T07:00:16.706Z,1.50
2022-10-18T07:02:43.849Z,1.00
2022-10-18T07:05:11.602Z,1.27
2022-10-18T07:07:39.480Z,0.85
2022-10-18T07:10:07.349Z,0.88
2022-10-18T07:12:34.896Z,0.93
2022-10-18T07:15:05.617Z,1.73
2022-10-18T07:17:36.253Z,1.63
2022-10-18T07:20:04.338Z,0.80
2022-10-18T07:22:31.591Z,0.90
2022-10-18T07:24:59.009Z,0.80
2022-10-18T07:27:26.197Z,0.88
2022-10-18T07:29:53.424Z,0.80
2022-10-18T07:32:21.064Z,0.60
2022-10-18T07:34:48.253Z,0.88
2022-10-18T07:37:15.526Z,0.80
2022-10-18T07:39:42.712Z,0.90
2022-10-18T07:42:09.868Z,1.00
2022-10-18T07:44:37.122Z,1.20
2022-10-18T07:47:04.349Z,0.98
2022-10-18T07:49:31.500Z,0.80
2022-10-18T07:51:58.644Z,0.90
2022-10-18T07:54:25.814Z,4.72
2022-10-18T07:56:52.987Z,5.28
2022-10-18T07:59:20.228Z,4.65
2022-10-18T08:01:47.455Z,3.58
2022-10-18T08:04:16.560Z,3.90
2022-10-18T08:06:43.917Z,4.95
2022-10-18T08:09:11.115Z,4.40
2022-10-18T08:11:38.326Z,3.08
2022-10-18T08:14:05.538Z,2.10
2022-10-18T08:19:05.052Z,1.85
2022-10-18T08:21:32.489Z,2.30
2022-10-18T08:23:59.737Z,1.90
2022-10-18T08:26:26.906Z,1.73
2022-10-18T08:29:09.865Z,2.17
2022-10-18T08:31:41.416Z,4.00
2022-10-18T08:34:08.639Z,3.90
2022-10-18T08:36:35.982Z,6.25
2022-10-18T08:39:03.391Z,9.02
2022-10-18T08:41:30.511Z,7.47
2022-10-18T08:44:07.116Z,6.15
2022-10-18T08:46:35.875Z,5.50
2022-10-18T08:49:04.008Z,4.60
2022-10-18T08:51:34.928Z,6.80
2022-10-18T08:54:05.309Z,11.05
2022-10-18T08:56:33.553Z,9.57
2022-10-18T08:59:02.949Z,13.20
2022-10-18T09:01:42.814Z,2.63
2022-10-18T09:04:22.094Z,2.17
2022-10-18T09:06:52.303Z,1.25
2022-10-18T09:09:29.055Z,1.58
2022-10-18T09:12:14.410Z,1.63
2022-10-18T09:14:47.432Z,1.42
2022-10-18T09:17:20.415Z,2.22
2022-10-18T09:20:02.625Z,2.33
2022-10-18T09:22:52.308Z,4.00
2022-10-18T09:25:22.750Z,2.35
2022-10-18T09:27:57.473Z,2.90
2022-10-18T09:30:24.732Z,2.80
2022-10-18T09:32:56.104Z,2.67
2022-10-18T09:35:29.192Z,2.67
2022-10-18T09:38:00.250Z,2.10
2022-10-18T09:40:31.777Z,1.45
2022-10-18T09:42:58.948Z,1.63
2022-10-18T09:45:29.703Z,1.40
2022-10-18T09:48:23.122Z,1.48
2022-10-18T09:51:11.315Z,1.23
2022-10-18T09:53:58.781Z,1.65
2022-10-18T09:56:49.223Z,2.03
2022-10-18T09:59:28.650Z,2.47
2022-10-18T10:01:55.908Z,2.25
2022-10-18T10:04:23.115Z,2.35
2022-10-18T10:06:53.358Z,2.00
2022-10-18T10:09:29.355Z,1.60
2022-10-18T10:11:57.169Z,1.70
2022-10-18T10:14:30.272Z,1.63
2022-10-18T10:16:59.115Z,1.35
2022-10-18T10:19:37.855Z,1.50
2022-10-18T10:22:07.279Z,1.73
2022-10-18T10:24:54.749Z,1.33
2022-10-18T10:27:24.265Z,1.40
2022-10-18T10:29:55.926Z,1.65
2022-10-18T10:32:24.236Z,1.40
2022-10-18T10:34:51.778Z,1.30
2022-10-18T10:37:28.144Z,1.30
2022-10-18T10:40:19.298Z,0.90
2022-10-18T10:43:00.010Z,1.60
2022-10-18T10:45:37.377Z,1.67
2022-10-18T10:48:24.245Z,1.40
2022-10-18T10:50:55.178Z,1.30
2022-10-18T10:53:28.905Z,1.50
2022-10-18T10:55:57.271Z,1.40
2022-10-18T10:58:24.716Z,1.10
2022-10-18T11:00:51.903Z,1.85
2022-10-18T11:03:29.569Z,1.20
2022-10-18T11:06:00.374Z,1.40
2022-10-18T11:08:29.038Z,2.13
2022-10-18T11:11:20.647Z,1.30
2022-10-18T11:13:56.984Z,1.45
2022-10-18T11:17:05.579Z,1.38
2022-10-18T11:19:40.622Z,1.63
2022-10-18T11:22:13.512Z,1.58
2022-10-18T11:24:40.713Z,1.52
2022-10-18T11:27:13.951Z,1.60
2022-10-18T11:29:55.768Z,1.38
2022-10-18T11:32:38.331Z,1.40
2022-10-18T11:35:20.465Z,1.42
2022-10-18T11:37:47.596Z,1.25
2022-10-18T11:40:29.647Z,1.23
2022-10-18T11:43:05.209Z,1.30
2022-10-18T11:46:11.787Z,1.27
2022-10-18T11:48:38.959Z,0.75
2022-10-18T11:51:34.040Z,1.50
2022-10-18T11:54:30.564Z,1.20
2022-10-18T11:57:09.963Z,1.20
2022-10-18T11:59:37.871Z,1.15
2022-10-18T12:02:05.264Z,0.88
2022-10-18T12:04:48.891Z,1.15
2022-10-18T12:07:28.956Z,0.73
2022-10-18T12:10:00.688Z,1.10
2022-10-18T12:12:30.619Z,1.08
2022-10-18T12:14:59.912Z,1.05
2022-10-18T12:17:46.381Z,1.17
2022-10-18T12:20:30.966Z,1.23
2022-10-18T12:23:16.847Z,1.35
2022-10-18T12:25:46.077Z,0.95
2022-10-18T12:28:28.675Z,1.60
2022-10-18T12:31:03.896Z,0.75
2022-10-18T12:33:35.554Z,0.93
2022-10-18T12:36:08.699Z,1.00
2022-10-18T12:38:37.404Z,1.27
2022-10-18T12:41:05.135Z,1.10
2022-10-18T12:43:39.419Z,0.90
2022-10-18T12:46:13.000Z,1.10
2022-10-18T12:48:42.825Z,1.25
2022-10-18T12:51:17.873Z,0.90
2022-10-18T12:53:46.073Z,0.90
2022-10-18T12:56:28.557Z,0.95
2022-10-18T12:59:14.266Z,0.90
2022-10-18T13:02:01.714Z,0.98
2022-10-18T13:04:28.961Z,0.90
2022-10-18T13:07:05.182Z,1.20
2022-10-18T13:09:36.613Z,1.23
2022-10-18T13:12:09.974Z,0.98
2022-10-18T13:14:59.231Z,0.80
2022-10-18T13:17:37.721Z,1.30
2022-10-18T13:20:26.736Z,0.95
2022-10-18T13:23:00.911Z,1.15
2022-10-18T13:25:31.171Z,1.15
2022-10-18T13:28:02.862Z,1.00
2022-10-18T13:30:30.000Z,0.95
2022-10-18T13:33:09.528Z,0.80
2022-10-18T13:35:45.768Z,1.15
2022-10-18T13:38:21.823Z,1.17
2022-10-18T13:41:00.776Z,1.20
2022-10-18T13:43:50.151Z,0.80
2022-10-18T13:46:23.141Z,0.90
2022-10-18T13:48:52.071Z,1.10
2022-10-18T13:51:25.241Z,1.15
2022-10-18T13:54:15.808Z,1.05
2022-10-18T13:56:52.352Z,1.00
2022-10-18T13:59:26.418Z,1.10
2022-10-18T14:02:09.544Z,0.85
2022-10-18T14:05:06.189Z,1.00
2022-10-18T14:07:43.944Z,1.38
2022-10-18T14:10:18.173Z,1.38
2022-10-18T14:12:46.833Z,0.90
2022-10-18T14:15:17.681Z,1.13
2022-10-18T14:17:58.258Z,1.30
2022-10-18T14:20:30.684Z,0.90
2022-10-18T14:23:16.805Z,0.68
2022-10-18T14:25:44.481Z,0.98
2022-10-18T14:28:16.790Z,1.05
2022-10-18T14:31:06.396Z,1.63
2022-10-18T14:33:35.241Z,1.42
2022-10-18T14:36:10.421Z,1.17
2022-10-18T14:38:48.643Z,1.20
2022-10-18T14:41:39.613Z,1.50
2022-10-18T14:44:15.970Z,1.00
2022-10-18T14:46:51.273Z,0.80
2022-10-18T14:49:19.164Z,1.35
2022-10-18T14:51:48.160Z,1.63
2022-10-18T14:54:16.670Z,1.20
2022-10-18T14:56:44.706Z,1.00
2022-10-18T14:59:20.146Z,1.65
2022-10-18T15:01:58.390Z,1.00
2022-10-18T15:04:32.600Z,0.90
2022-10-18T15:07:03.938Z,0.77
2022-10-18T15:09:32.303Z,1.20
2022-10-18T15:12:00.683Z,1.10
2022-10-18T15:14:28.460Z,1.08
2022-10-18T15:17:31.253Z,1.02
2022-10-18T15:20:18.503Z,1.02
2022-10-18T15:22:48.818Z,1.45
2022-10-18T15:25:17.991Z,1.20
2022-10-18T15:27:51.906Z,1.20
2022-10-18T15:30:21.002Z,1.13
2022-10-18T15:33:11.173Z,1.20
2022-10-18T15:35:39.699Z,1.10
2022-10-18T15:38:17.934Z,1.17
2022-10-18T15:40:45.260Z,1.10
2022-10-18T15:43:24.525Z,1.65
2022-10-18T15:45:54.556Z,0.90
2022-10-18T15:48:23.332Z,0.90
2022-10-18T15:51:06.893Z,1.00
2022-10-18T15:53:34.092Z,1.20
2022-10-18T15:56:01.291Z,0.90
2022-10-18T15:58:39.413Z,0.90
2022-10-18T16:01:08.455Z,1.15
2022-10-18T16:03:36.507Z,1.20
2022-10-18T16:06:05.446Z,1.00
2022-10-18T16:08:37.184Z,1.38
2022-10-18T16:11:04.411Z,1.77
2022-10-18T16:13:31.652Z,1.35
2022-10-18T16:16:00.117Z,1.25
2022-10-18T16:18:27.637Z,1.38
2022-10-18T16:20:55.769Z,1.20
2022-10-18T16:23:23.094Z,1.20
2022-10-18T16:25:50.677Z,1.38
2022-10-18T16:28:19.167Z,1.40
2022-10-18T16:30:49.577Z,1.25
2022-10-18T16:33:19.273Z,1.50
2022-10-18T16:35:49.186Z,1.52
2022-10-18T16:38:35.082Z,1.70
2022-10-18T16:41:04.038Z,1.50
2022-10-18T16:43:31.517Z,1.48
2022-10-18T16:45:58.852Z,1.50
2022-10-18T16:48:26.109Z,1.20
2022-10-18T16:50:54.728Z,1.83
2022-10-18T16:53:23.878Z,1.00
2022-10-18T16:55:56.217Z,1.10
2022-10-18T17:03:23.345Z,1.70
2022-10-18T17:05:50.877Z,1.52
2022-10-18T17:08:23.341Z,1.38
2022-10-18T17:10:53.133Z,1.50
2022-10-18T17:13:21.005Z,1.10
2022-10-18T17:15:48.561Z,1.90
2022-10-18T17:18:17.757Z,2.25
2022-10-18T17:20:45.088Z,1.60
2022-10-18T17:23:12.913Z,1.58
2022-10-18T17:25:52.691Z,1.55
2022-10-18T17:28:30.705Z,1.90
2022-10-18T17:30:57.897Z,1.20
2022-10-18T17:33:25.085Z,1.38
2022-10-18T17:35:52.274Z,1.67
2022-10-18T17:38:19.417Z,1.60
2022-10-18T17:40:46.596Z,2.10
2022-10-18T17:43:13.839Z,1.75
2022-10-18T17:45:48.259Z,1.50
2022-10-18T17:48:15.517Z,1.40
2022-10-18T17:50:42.943Z,1.70
2022-10-18T17:53:11.999Z,1.35
2022-10-18T17:55:39.542Z,1.27
2022-10-18T17:58:06.783Z,1.30
2022-10-18T18:00:33.976Z,2.00
2022-10-18T18:03:01.750Z,1.63
2022-10-18T18:05:33.565Z,2.00
2022-10-18T18:08:03.917Z,1.50
2022-10-18T18:10:33.351Z,1.25
2022-10-18T18:13:00.942Z,1.70
2022-10-18T18:15:28.623Z,1.85
2022-10-18T18:17:57.922Z,1.85
2022-10-18T18:20:25.871Z,1.45
2022-10-18T18:22:53.125Z,1.60
2022-10-18T18:25:20.336Z,1.23
2022-10-18T18:27:47.533Z,1.67
2022-10-18T18:30:17.660Z,1.98
2022-10-18T18:32:44.870Z,1.33
2022-10-18T18:35:12.053Z,1.50
2022-10-18T18:37:39.222Z,1.90
2022-10-18T18:40:06.705Z,1.67
2022-10-18T18:42:34.099Z,1.33
2022-10-18T18:45:01.639Z,1.40
2022-10-18T18:47:28.880Z,1.67
2022-10-18T18:49:56.034Z,1.10
2022-10-18T18:52:23.256Z,1.65
2022-10-18T18:54:50.437Z,1.52
2022-10-18T18:57:17.882Z,1.42
2022-10-18T18:59:45.043Z,1.52
2022-10-18T19:02:12.201Z,1.60
2022-10-18T19:04:41.258Z,1.30
2022-10-18T19:07:08.793Z,1.38
2022-10-18T19:09:38.437Z,1.48
2022-10-18T19:12:05.701Z,1.65
2022-10-18T19:14:32.879Z,1.52
2022-10-18T19:17:01.476Z,1.45
2022-10-18T19:19:30.170Z,1.63
2022-10-18T19:21:58.687Z,1.25
2022-10-18T19:24:27.413Z,1.50
2022-10-18T19:26:55.776Z,1.17
2022-10-18T19:29:24.199Z,1.33
2022-10-18T19:31:52.380Z,1.33
2022-10-18T19:34:22.081Z,1.70
2022-10-18T19:36:49.745Z,1.30
2022-10-18T19:39:24.342Z,1.70
2022-10-18T19:41:55.887Z,0.93
2022-10-18T19:44:23.721Z,0.90
2022-10-18T19:46:51.170Z,1.65
2022-10-18T19:49:18.553Z,1.05
2022-10-18T19:51:45.779Z,1.33
2022-10-18T19:54:13.798Z,0.90
2022-10-18T19:56:44.213Z,1.75
2022-10-18T19:59:12.590Z,1.55
2022-10-18T20:01:39.867Z,1.20
2022-10-18T20:04:08.378Z,1.17
2022-10-18T20:06:35.979Z,1.63
2022-10-18T20:09:03.411Z,1.20
2022-10-18T20:11:30.704Z,1.17
2022-10-18T20:13:59.565Z,1.52
2022-10-18T20:16:28.690Z,1.33
2022-10-18T20:19:07.240Z,0.95
2022-10-18T20:21:35.924Z,1.60
2022-10-18T20:24:04.200Z,1.20
2022-10-18T20:26:35.816Z,1.10
2022-10-18T20:29:03.305Z,1.30
2022-10-18T20:31:35.662Z,1.00
2022-10-18T20:34:03.930Z,1.35
2022-10-18T20:36:31.996Z,1.30
2022-10-18T20:38:59.405Z,1.10
2022-10-18T20:41:30.594Z,1.05
2022-10-18T20:43:58.767Z,1.00
2022-10-18T20:46:26.888Z,1.00
2022-10-18T20:48:54.817Z,1.08
2022-10-18T20:51:22.486Z,1.20
2022-10-18T20:53:50.066Z,0.82
2022-10-18T20:56:20.283Z,1.00
2022-10-18T20:58:48.416Z,1.05
2022-10-18T21:01:17.721Z,1.23
2022-10-18T21:03:46.110Z,1.25
2022-10-18T21:06:17.590Z,1.60
2022-10-18T21:08:45.420Z,1.55
2022-10-18T21:11:13.092Z,1.30
2022-10-18T21:13:43.592Z,1.00
2022-10-18T21:16:10.873Z,1.30
2022-10-18T21:18:40.368Z,1.00
2022-10-18T21:21:24.260Z,1.58
2022-10-18T21:23:52.173Z,1.00
2022-10-18T21:26:20.607Z,0.88
2022-10-18T21:28:48.048Z,1.30
2022-10-18T21:31:22.445Z,1.90
2022-10-18T21:33:53.316Z,1.00
2022-10-18T21:36:20.460Z,1.20
2022-10-18T21:38:47.681Z,0.73
2022-10-18T21:41:15.754Z,1.63
2022-10-18T21:43:44.065Z,1.30
2022-10-18T21:46:12.196Z,1.13
2022-10-18T21:48:39.703Z,1.23
2022-10-18T21:51:07.755Z,1.58
2022-10-18T21:53:35.329Z,1.48
2022-10-18T21:56:10.222Z,1.15
2022-10-18T21:58:37.726Z,1.20
2022-10-18T22:01:12.113Z,1.25
2022-10-18T22:03:39.370Z,1.55
2022-10-18T22:06:08.858Z,1.63
2022-10-18T22:08:36.638Z,1.40
2022-10-18T22:11:04.032Z,1.23
2022-10-18T22:13:31.665Z,1.17
2022-10-18T22:16:06.675Z,1.67
2022-10-18T22:18:34.426Z,1.55
2022-10-18T22:21:02.975Z,1.20
2022-10-18T22:23:33.751Z,1.17
2022-10-18T22:26:05.134Z,1.45
2022-10-18T22:28:32.417Z,1.23
2022-10-18T22:30:59.652Z,1.25
2022-10-18T22:33:26.971Z,1.33
2022-10-18T22:35:54.288Z,1.42
2022-10-18T22:38:21.447Z,1.80
2022-10-18T22:40:48.635Z,1.75
2022-10-18T22:43:15.837Z,0.95
2022-10-18T22:45:43.021Z,2.13
2022-10-18T22:48:10.212Z,1.60
2022-10-18T22:50:37.393Z,1.92
2022-10-18T22:53:04.629Z,1.42
2022-10-18T22:55:31.793Z,1.60
2022-10-18T22:57:58.983Z,1.25
2022-10-18T23:00:26.203Z,1.00
2022-10-18T23:02:53.437Z,1.45
2022-10-18T23:05:20.582Z,1.40
2022-10-18T23:07:49.151Z,1.20
2022-10-18T23:10:16.721Z,1.48
2022-10-18T23:12:43.896Z,1.48
2022-10-18T23:15:11.204Z,1.20
2022-10-18T23:17:38.796Z,1.30
2022-10-18T23:20:06.562Z,1.25
2022-10-18T23:22:33.863Z,1.73
2022-10-18T23:25:01.314Z,2.05
2022-10-18T23:27:29.908Z,1.73
2022-10-18T23:29:57.136Z,1.75
2022-10-18T23:32:24.315Z,1.73
2022-10-18T23:34:52.257Z,1.25
2022-10-18T23:37:19.403Z,1.88
2022-10-18T23:39:46.551Z,1.40
2022-10-18T23:42:13.720Z,0.90
2022-10-18T23:44:40.945Z,0.90
2022-10-18T23:47:08.087Z,1.63
2022-10-18T23:49:35.401Z,1.00
2022-10-18T23:52:02.559Z,1.00
2022-10-18T23:54:29.749Z,1.30
2022-10-18T23:56:56.945Z,1.42
2022-10-18T23:59:24.104Z,1.10
